NCAR-RAP Real-Time Weather Data

Output produced by METARs form (08 May 2021  16:11 UTC)
found at http://weather.rap.ucar.edu/surface/
 
KBDR 081552Z 03003KT 10SM OVC060 13/M01 A2988 RMK AO2 SLP116 T01331006
KBDR 081452Z 13005KT 10SM OVC060 12/02 A2988 RMK AO2 SLP119 T01220017 51009
KBDR 081352Z 11005KT 10SM OVC070 12/03 A2988 RMK AO2 SLP118 T01220033
KBDR 081252Z 08006KT 10SM OVC060 12/03 A2987 RMK AO2 SLP115 T01170033
KBDR 081152Z 03004KT 10SM BKN080 OVC095 11/04 A2986 RMK AO2 SLP110 T01060039 10106 20094 53012
KBDR 081052Z 36003KT 10SM BKN120 10/04 A2984 RMK AO2 SLP105 T01000039
KBDR 080952Z AUTO 36005KT 10SM CLR 09/04 A2982 RMK AO2 SLP098 T00940039
KBDR 080852Z AUTO 01003KT 10SM CLR 09/04 A2982 RMK AO2 SLP098 T00940044 58013
KBDR 080752Z AUTO 32003KT 10SM OVC095 10/05 A2984 RMK AO2 SLP103 T01000050
KBDR 080652Z AUTO 02004KT 10SM SCT120 10/06 A2985 RMK AO2 SLP108 T01000056
KBDR 080552Z AUTO 07005KT 10SM FEW070 OVC100 11/05 A2986 RMK AO2 SLP111 T01060050 10117 20100 58015
KBDR 080452Z AUTO 08006KT 10SM OVC100 11/05 A2988 RMK AO2 SLP117 T01060050 401500094
KBDR 080352Z AUTO 08007KT 10SM OVC100 11/06 A2990 RMK AO2 SLP123 T01060056
KBDR 080252Z AUTO 07008KT 10SM BKN110 11/07 A2991 RMK AO2 SLP126 T01060067 53006
KBDR 080152Z 08010KT 10SM CLR 11/07 A2990 RMK AO2 SLP125 T01060072
KBDR 080052Z 09009KT 10SM CLR 11/07 A2989 RMK AO2 SLP122 T01110072
KBDR 072352Z 10010KT 10SM CLR 12/07 A2989 RMK AO2 SLP121 T01170067 10144 20117 51003
KBDR 072252Z 10011KT 10SM CLR 12/07 A2988 RMK AO2 SLP119 T01220072
KBDR 072152Z 11009KT 10SM OVC100 13/08 A2989 RMK AO2 SLP121 T01280083
KBDR 072052Z 10013KT 10SM SCT120 13/08 A2988 RMK AO2 SLP117 T01330083 55006
KBDR 071952Z 08014KT 10SM CLR 14/09 A2988 RMK AO2 SLP116 T01390094
KBDR 071852Z 08013KT 10SM CLR 14/09 A2988 RMK AO2 SLP118 T01390094
KBDR 071752Z 08015KT 10SM CLR 14/09 A2990 RMK AO2 SLP123 T01390094 10150 20133 58013
KBDR 071652Z 08014KT 10SM CLR 14/09 A2991 RMK AO2 SLP129 T01390089
KBDR 071552Z 10011KT 10SM CLR 14/07 A2992 RMK AO2 SLP133 T01440072
KBDR 071452Z 12011KT 10SM CLR 14/02 A2993 RMK AO2 SLP136 T01390022 53001
KBDR 071352Z 06012KT 10SM CLR 15/00 A2992 RMK AO2 SLP132 T01500000
KBDR 071252Z 05009KT 10SM CLR 14/M01 A2993 RMK AO2 SLP133 T01441006
KBDR 071152Z 04010KT 10SM CLR 13/M01 A2993 RMK AO2 SLP135 T01331011 10133 20094 53001
KBDR 071052Z 03010KT 10SM CLR 11/M01 A2992 RMK AO2 SLP132 T01111011
KBDR 070952Z AUTO 03008KT 10SM CLR 10/M01 A2993 RMK AO2 SLP133 T01001006
KBDR 070852Z AUTO 03006KT 10SM CLR 10/01 A2993 RMK AO2 SLP134 T01000011 56003
KBDR 070752Z AUTO 01005KT 10SM CLR 10/00 A2993 RMK AO2 SLP134 T01000000
KBDR 070652Z AUTO 01005KT 10SM CLR 11/00 A2993 RMK AO2 SLP135 T01060000
KBDR 070552Z AUTO 33004KT 10SM CLR 11/M01 A2994 RMK AO2 SLP136 T01111006 10161 20111 58004
KBDR 070452Z AUTO 32005KT 10SM CLR 12/00 A2994 RMK AO2 SLP139 T01170000 401940089
KBDR 070352Z AUTO 34005KT 10SM CLR 13/00 A2995 RMK AO2 SLP141 T01280000
KBDR 070252Z AUTO 34005KT 10SM CLR 13/M01 A2995 RMK AO2 SLP140 T01331006 51016
KBDR 070152Z 35006KT 10SM CLR 14/M01 A2994 RMK AO2 SLP138 T01441006
KBDR 070052Z 35008KT 10SM CLR 16/M01 A2993 RMK AO2 SLP134 T01561006
KBDR 062352Z 36006KT 10SM CLR 16/M01 A2990 RMK AO2 SLP125 T01611006 10194 20161 53010
KBDR 062252Z 36007KT 10SM CLR 17/M02 A2989 RMK AO2 SLP122 T01721017
KBDR 062152Z 35006KT 10SM CLR 18/M01 A2987 RMK AO2 SLP116 T01831006
KBDR 062052Z 34008KT 10SM CLR 19/00 A2987 RMK AO2 SLP115 T01890000 56007
KBDR 061952Z 30007KT 250V340 10SM CLR 19/00 A2987 RMK AO2 SLP116 T01940000
KBDR 061852Z 34010KT 10SM CLR 18/00 A2987 RMK AO2 SLP115 T01830000
KBDR 061752Z 34013G22KT 10SM CLR 18/00 A2989 RMK AO2 SLP122 T01780000 10183 20122 58009
KBDR 061652Z 32010G17KT 10SM CLR 17/00 A2990 RMK AO2 SLP125 T01720000